Time,TemperatureF,DewpointF,PressureIn,WindDirection,WindDirectionDegrees,WindSpeedMPH,WindSpeedGustMPH,Humidity,HourlyPrecipIn,Conditions,Clouds,dailyrainin,SoftwareType,DateUTC
2013-08-15 10:22:00,-999.0,-99.9,30.15,West,279,0.0,0.0,-999,-99.99,,,-99.99,,2013-08-15 14:22:00,
2013-08-15 10:56:00,65.0,52.0,30.14,West,279,0.0,1.0,63,-99.99,,,-99.99,,2013-08-15 14:56:00,
2013-08-15 11:15:00,66.0,51.0,30.14,WSW,254,0.0,4.0,58,-99.99,,,-99.99,,2013-08-15 15:15:00,
2013-08-15 11:23:00,67.0,51.0,30.14,West,271,0.0,1.0,57,-99.99,,,-99.99,,2013-08-15 15:23:00,
2013-08-15 11:43:00,68.0,50.0,30.14,SSW,205,1.0,4.0,52,-99.99,,,-99.99,,2013-08-15 15:43:00,
2013-08-15 11:54:00,69.0,50.0,30.14,SW,214,1.0,5.0,50,-99.99,,,-99.99,,2013-08-15 15:54:00,
2013-08-15 12:26:00,71.0,47.0,30.13,NW,308,2.0,7.0,42,-99.99,,,-99.99,,2013-08-15 16:26:00,
2013-08-15 12:28:00,70.0,-99.9,30.13,ENE,65,2.0,6.0,44,-99.99,,,-99.99,,2013-08-15 16:28:00,
2013-08-15 12:44:00,70.0,48.0,30.13,NNE,22,2.0,4.0,45,-99.99,,,-99.99,,2013-08-15 16:44:00,
2013-08-15 12:55:00,70.0,47.0,30.13,ENE,65,2.0,6.0,44,-99.99,,,-99.99,,2013-08-15 16:55:00,
2013-08-15 13:06:00,70.0,47.0,30.13,ENE,65,2.0,6.0,44,-99.99,,,-99.99,,2013-08-15 17:06:00,
2013-08-15 13:18:00,70.0,47.0,30.13,ENE,65,2.0,6.0,44,-99.99,,,-99.99,,2013-08-15 17:18:00,
2013-08-15 15:49:00,74.0,49.0,30.07,ENE,75,2.0,10.0,41,-99.99,,,-99.99,,2013-08-15 19:49:00,
2013-08-15 16:14:00,73.0,48.0,30.07,ENE,58,0.0,5.0,41,-99.99,,,-99.99,,2013-08-15 20:14:00,
2013-08-15 16:33:00,75.0,49.0,30.06,NE,41,3.0,6.0,40,-99.99,,,-99.99,,2013-08-15 20:33:00,
2013-08-15 17:04:00,75.0,48.0,30.05,NE,51,5.0,10.0,38,-99.99,,,-99.99,,2013-08-15 21:04:00,
2013-08-15 17:17:00,73.0,48.0,30.05,East,88,3.0,8.0,41,-99.99,,,-99.99,,2013-08-15 21:17:00,
2013-08-15 17:41:00,72.0,49.0,30.05,ENE,61,0.0,3.0,44,-99.99,,,-99.99,,2013-08-15 21:41:00,
2013-08-15 17:57:00,74.0,47.0,30.05,ENE,57,1.0,4.0,39,-99.99,,,-99.99,,2013-08-15 21:57:00,
2013-08-15 18:17:00,75.0,47.0,30.04,East,82,1.0,6.0,37,-99.99,,,-99.99,,2013-08-15 22:17:00,
2013-08-15 18:29:00,74.0,48.0,30.04,East,88,3.0,9.0,40,-99.99,,,-99.99,,2013-08-15 22:29:00,
2013-08-15 18:58:00,73.0,49.0,30.05,NE,44,0.0,2.0,42,-99.99,,,-99.99,,2013-08-15 22:58:00,
2013-08-15 19:16:00,72.0,48.0,30.05,NE,44,0.0,4.0,42,-99.99,,,-99.99,,2013-08-15 23:16:00,
2013-08-15 19:35:00,-999.0,-99.9,30.04,NE,44,0.0,1.0,46,-99.99,,,-99.99,,2013-08-15 23:35:00,
2013-08-15 19:55:00,73.0,51.0,30.04,NE,44,0.0,1.0,46,-99.99,,,-99.99,,2013-08-15 23:55:00,
2013-08-15 20:12:00,72.0,51.0,30.04,NE,44,0.0,1.0,48,-99.99,,,-99.99,,2013-08-16 00:12:00,
2013-08-15 20:24:00,72.0,52.0,30.04,NE,44,0.0,1.0,50,-99.99,,,-99.99,,2013-08-16 00:24:00,
2013-08-15 20:46:00,71.0,53.0,30.05,NE,44,0.0,1.0,53,-99.99,,,-99.99,,2013-08-16 00:46:00,
2013-08-15 20:52:00,70.0,52.0,30.05,NE,44,0.0,0.0,53,-99.99,,,-99.99,,2013-08-16 00:52:00,
2013-08-15 21:20:00,69.0,53.0,30.06,NE,44,0.0,0.0,57,-99.99,,,-99.99,,2013-08-16 01:20:00,
2013-08-15 21:26:00,68.0,54.0,30.06,NE,44,0.0,1.0,60,-99.99,,,-99.99,,2013-08-16 01:26:00,
2013-08-15 21:43:00,-999.0,-99.9,30.06,NE,44,0.0,-999.0,-999,-99.99,,,-99.99,,2013-08-16 01:43:00,
2013-08-15 21:54:00,66.0,55.0,30.06,NE,44,0.0,1.0,67,-99.99,,,-99.99,,2013-08-16 01:54:00,
2013-08-15 22:12:00,65.0,55.0,30.07,NE,44,0.0,0.0,70,-99.99,,,-99.99,,2013-08-16 02:12:00,